Time;durP1;ratioP1;P1;durP2;ratioP2;P2;SDS_P1;SDS_P2;PMS_P1;PMS_P2;Temp;Humidity;BMP_temperature;BMP_pressure;BME280_temperature;BME280_humidity;BME280_pressure;Samples;Min_cycle;Max_cycle;Signal;HPM_P1;HPM_P2
2023/01/12 00:01:33;;;;;;;1.60;1.10;;;9.70;98.20;;;;;;5015545;28;20483;-74
2023/01/12 00:04:01;;;;;;;1.57;1.10;;;9.70;98.20;;;;;;5018287;28;20972;-74
2023/01/12 00:06:30;;;;;;;1.60;1.10;;;9.70;98.20;;;;;;5014832;28;20493;-74
2023/01/12 00:08:58;;;;;;;2.67;2.03;;;9.70;98.20;;;;;;5019142;28;20473;-75
2023/01/12 00:11:25;;;;;;;1.60;1.20;;;9.70;98.20;;;;;;5022408;28;20509;-75
2023/01/12 00:13:52;;;;;;;1.60;1.10;;;9.70;98.20;;;;;;5016248;28;20490;-75
2023/01/12 00:16:36;;;;;;;1.60;1.10;;;9.70;98.20;;;;;;5015810;28;20968;-75
2023/01/12 00:19:14;;;;;;;1.60;1.13;;;9.70;98.20;;;;;;5025802;28;20882;-75
2023/01/12 00:21:55;;;;;;;1.60;1.10;;;9.70;98.20;;;;;;5017335;28;20510;-75
2023/01/12 00:24:23;;;;;;;1.60;1.20;;;9.70;98.20;;;;;;5029147;28;20536;-75
2023/01/12 00:26:50;;;;;;;1.60;1.20;;;9.60;98.20;;;;;;5016088;28;20481;-74
2023/01/12 00:29:18;;;;;;;1.60;1.10;;;9.60;98.20;;;;;;5019641;28;20459;-74
2023/01/12 00:31:45;;;;;;;1.60;1.20;;;9.60;98.20;;;;;;5016450;28;20880;-76
2023/01/12 00:34:14;;;;;;;1.60;1.10;;;9.60;98.20;;;;;;5019864;28;20462;-74
2023/01/12 00:36:41;;;;;;;1.50;1.10;;;9.60;98.20;;;;;;5016136;28;20863;-75
2023/01/12 00:39:08;;;;;;;1.60;1.10;;;9.60;98.20;;;;;;5018831;28;20454;-75
2023/01/12 00:47:06;;;;;;;1.60;1.10;;;9.60;98.20;;;;;;5014094;28;20563;-74
2023/01/12 00:49:34;;;;;;;1.60;1.10;;;9.60;98.20;;;;;;5026978;28;20545;-75
2023/01/12 00:52:01;;;;;;;1.70;1.43;;;9.60;98.20;;;;;;5019419;28;20490;-74
2023/01/12 00:54:28;;;;;;;1.60;1.10;;;9.60;98.20;;;;;;5026029;28;20486;-74
2023/01/12 00:56:56;;;;;;;1.60;1.20;;;9.60;98.20;;;;;;5017569;28;20866;-75
2023/01/12 00:59:22;;;;;;;1.60;1.10;;;9.60;98.20;;;;;;5025025;28;20557;-75
2023/01/12 01:01:50;;;;;;;1.60;1.20;;;9.60;98.20;;;;;;5021405;28;20507;-74
2023/01/12 01:04:17;;;;;;;1.60;1.10;;;9.60;98.20;;;;;;5032319;28;20725;-75
2023/01/12 01:06:45;;;;;;;1.60;1.20;;;9.60;98.20;;;;;;5019026;28;20915;-75
2023/01/12 01:09:13;;;;;;;1.60;1.30;;;9.60;98.20;;;;;;5030049;28;20947;-75
2023/01/12 01:11:40;;;;;;;1.60;1.00;;;9.60;98.20;;;;;;5020708;28;20478;-75
2023/01/12 01:14:08;;;;;;;1.53;1.10;;;9.60;98.20;;;;;;5022123;28;20462;-75
2023/01/12 01:16:35;;;;;;;1.57;1.10;;;9.60;98.20;;;;;;5021256;28;20494;-75
2023/01/12 01:19:04;;;;;;;1.60;1.10;;;9.60;98.20;;;;;;5022320;28;20468;-74
2023/01/12 01:21:32;;;;;;;1.50;1.10;;;9.60;98.20;;;;;;5021336;28;20479;-74
2023/01/12 01:24:01;;;;;;;1.60;1.20;;;9.60;98.20;;;;;;5022796;28;20972;-75
2023/01/12 01:26:29;;;;;;;1.60;1.10;;;9.60;98.20;;;;;;5025022;28;21001;-75
2023/01/12 01:28:57;;;;;;;1.60;1.20;;;9.60;98.20;;;;;;5022232;28;20865;-75
2023/01/12 01:31:26;;;;;;;1.60;1.20;;;9.60;98.20;;;;;;5026015;28;20562;-74
2023/01/12 01:33:53;;;;;;;1.60;1.10;;;9.60;98.20;;;;;;5024842;28;20462;-74
2023/01/12 01:36:20;;;;;;;1.60;1.10;;;9.60;98.20;;;;;;5021277;28;20991;-74
2023/01/12 01:38:49;;;;;;;1.57;1.10;;;9.60;98.20;;;;;;5029147;28;20513;-74
2023/01/12 01:41:21;;;;;;;1.93;1.60;;;9.60;98.20;;;;;;5018627;28;20918;-75
2023/01/12 01:43:54;;;;;;;1.60;1.23;;;9.60;98.20;;;;;;5026492;28;20519;-75
2023/01/12 01:46:37;;;;;;;1.60;1.10;;;9.60;98.20;;;;;;5020680;28;20509;-74
2023/01/12 01:49:15;;;;;;;1.60;1.10;;;9.60;98.20;;;;;;5038363;28;20458;-75
2023/01/12 01:51:43;;;;;;;1.60;1.13;;;9.60;98.20;;;;;;5021952;28;20855;-74
2023/01/12 01:54:11;;;;;;;1.60;1.10;;;9.60;98.20;;;;;;5030787;28;20457;-74
2023/01/12 01:56:40;;;;;;;1.60;1.10;;;9.60;98.20;;;;;;5019620;28;20494;-75
2023/01/12 01:59:10;;;;;;;1.60;1.10;;;9.60;98.20;;;;;;5024906;28;20463;-74
2023/01/12 02:01:38;;;;;;;1.60;1.20;;;9.60;98.20;;;;;;5020208;28;20487;-75
2023/01/12 02:04:06;;;;;;;1.53;1.10;;;9.60;98.20;;;;;;5025054;28;20467;-74
2023/01/12 02:06:34;;;;;;;1.60;1.20;;;9.70;98.20;;;;;;5019370;28;20534;-75
2023/01/12 02:09:05;;;;;;;1.60;1.10;;;9.70;98.20;;;;;;5023465;28;20459;-74
2023/01/12 02:17:23;;;;;;;1.60;1.10;;;9.70;98.20;;;;;;5019130;28;20521;-74
2023/01/12 02:20:19;;;;;;;1.60;1.20;;;9.70;98.20;;;;;;5030058;28;20836;-74
2023/01/12 02:23:24;;;;;;;1.60;1.00;;;9.80;98.20;;;;;;4996693;28;20475;-74
2023/01/12 02:26:15;;;;;;;1.60;1.10;;;9.80;98.20;;;;;;5024247;28;20479;-74
2023/01/12 02:29:17;;;;;;;1.60;1.10;;;9.80;98.20;;;;;;5031219;28;20837;-74
2023/01/12 02:31:56;;;;;;;1.57;1.10;;;9.80;98.20;;;;;;4987903;28;20490;-76
2023/01/12 02:34:32;;;;;;;1.60;1.20;;;9.90;98.20;;;;;;5027139;28;20463;-74
2023/01/12 02:37:09;;;;;;;1.57;1.17;;;9.90;98.20;;;;;;5011169;28;20491;-73
2023/01/12 02:39:43;;;;;;;1.60;1.17;;;9.90;98.20;;;;;;5029215;28;20841;-71
2023/01/12 02:45:07;;;;;;;1.60;1.10;;;9.90;98.20;;;;;;5035427;28;20530;-72
2023/01/12 02:47:44;;;;;;;1.60;1.10;;;9.90;98.20;;;;;;5013065;28;20927;-74
2023/01/12 02:50:14;;;;;;;1.60;1.13;;;9.90;98.20;;;;;;5035855;28;20458;-74
2023/01/12 02:52:45;;;;;;;1.60;1.17;;;10.00;98.20;;;;;;5012504;28;20481;-73
2023/01/12 02:55:14;;;;;;;1.60;1.20;;;10.00;98.20;;;;;;5038760;28;20479;-74
2023/01/12 02:57:42;;;;;;;1.57;1.10;;;10.00;98.20;;;;;;5003700;28;20490;-74
2023/01/12 03:00:10;;;;;;;1.60;1.10;;;10.00;98.20;;;;;;5037424;28;20485;-74
2023/01/12 03:02:40;;;;;;;1.60;1.20;;;9.90;98.20;;;;;;5017420;28;20479;-75
2023/01/12 03:05:08;;;;;;;1.60;1.10;;;9.90;98.20;;;;;;5042845;28;21138;-75
2023/01/12 03:07:44;;;;;;;1.60;1.17;;;9.90;98.20;;;;;;5010929;28;20563;-75
2023/01/12 03:10:19;;;;;;;1.60;1.20;;;9.80;98.20;;;;;;5041931;28;20458;-74
2023/01/12 03:12:50;;;;;;;1.60;1.17;;;9.80;98.20;;;;;;5010393;28;21153;-75
2023/01/12 03:15:19;;;;;;;1.60;1.17;;;9.80;98.20;;;;;;5039509;28;20493;-75
2023/01/12 03:17:55;;;;;;;1.60;1.20;;;9.80;98.20;;;;;;5003296;28;20496;-74
2023/01/12 03:20:25;;;;;;;1.60;1.13;;;9.80;98.20;;;;;;5046829;28;20569;-74
2023/01/12 03:22:57;;;;;;;1.60;1.10;;;9.70;98.20;;;;;;5016992;28;20484;-75
2023/01/12 03:25:26;;;;;;;1.57;1.10;;;9.70;98.20;;;;;;5031234;28;20487;-75
2023/01/12 03:27:57;;;;;;;1.60;1.10;;;9.70;98.20;;;;;;5009414;28;20510;-74
2023/01/12 03:30:31;;;;;;;1.60;1.13;;;9.70;98.20;;;;;;5042110;28;20455;-74
2023/01/12 03:33:01;;;;;;;1.60;1.10;;;9.70;98.20;;;;;;5012062;28;20996;-74
2023/01/12 03:35:32;;;;;;;1.60;1.10;;;9.70;98.20;;;;;;5035499;28;21024;-74
2023/01/12 03:38:02;;;;;;;1.60;1.13;;;9.70;98.20;;;;;;5016832;28;21007;-74
2023/01/12 03:40:34;;;;;;;1.60;1.10;;;9.70;98.20;;;;;;5038363;28;20474;-74
2023/01/12 03:43:10;;;;;;;1.60;1.10;;;9.70;98.20;;;;;;5012642;28;21031;-74
2023/01/12 03:45:41;;;;;;;1.60;1.20;;;9.70;98.20;;;;;;5033666;28;20489;-74
2023/01/12 03:48:14;;;;;;;1.60;1.10;;;9.70;98.20;;;;;;5011456;28;20471;-74
2023/01/12 03:50:45;;;;;;;1.60;1.10;;;9.70;98.20;;;;;;5037794;28;20451;-74
2023/01/12 03:53:15;;;;;;;1.60;1.10;;;9.70;98.20;;;;;;5022757;28;20851;-75
2023/01/12 03:55:43;;;;;;;1.57;1.10;;;9.70;98.20;;;;;;5030929;28;20506;-75
2023/01/12 03:58:10;;;;;;;1.60;1.10;;;9.70;98.20;;;;;;5020842;28;20489;-74
2023/01/12 04:00:37;;;;;;;1.57;1.10;;;9.80;98.20;;;;;;5046874;28;20458;-75
2023/01/12 04:03:10;;;;;;;1.60;1.20;;;9.80;98.20;;;;;;5019756;28;20910;-74
2023/01/12 04:05:37;;;;;;;1.57;1.10;;;9.80;98.20;;;;;;5038426;28;20482;-74
2023/01/12 04:08:03;;;;;;;1.60;1.10;;;9.80;98.20;;;;;;5012777;28;20487;-74
2023/01/12 04:10:30;;;;;;;1.60;1.10;;;9.80;98.20;;;;;;5033857;28;20481;-74
2023/01/12 04:12:56;;;;;;;1.60;1.10;;;9.80;98.20;;;;;;5006528;28;20527;-74
2023/01/12 04:15:23;;;;;;;1.60;1.10;;;9.80;98.20;;;;;;5035050;28;20475;-75
2023/01/12 04:17:50;;;;;;;1.60;1.10;;;9.80;98.20;;;;;;5001555;28;20237;-75
2023/01/12 04:20:19;;;;;;;1.60;1.10;;;9.80;98.20;;;;;;5042256;28;20945;-74
2023/01/12 04:22:45;;;;;;;1.57;1.10;;;9.90;98.20;;;;;;5013442;28;20479;-75
2023/01/12 04:25:13;;;;;;;1.60;1.10;;;9.90;98.20;;;;;;5039814;28;20478;-74
2023/01/12 04:27:46;;;;;;;1.60;1.10;;;9.90;98.20;;;;;;5013064;28;20491;-75
2023/01/12 04:30:13;;;;;;;1.60;1.10;;;9.90;98.20;;;;;;5037714;28;20454;-75
2023/01/12 04:32:41;;;;;;;1.53;1.03;;;9.90;98.20;;;;;;5014487;28;20483;-74
2023/01/12 04:35:10;;;;;;;1.60;1.10;;;9.90;98.20;;;;;;5038048;28;20477;-75
2023/01/12 04:37:39;;;;;;;1.57;1.10;;;9.90;98.20;;;;;;5008562;28;20538;-74
2023/01/12 04:40:07;;;;;;;1.60;1.10;;;9.90;98.20;;;;;;5037247;28;20454;-75
2023/01/12 04:45:18;;;;;;;1.60;1.10;;;9.90;98.20;;;;;;5043478;28;20921;-76
2023/01/12 04:47:45;;;;;;;1.60;1.13;;;9.90;98.20;;;;;;5013930;28;20476;-75
2023/01/12 04:50:12;;;;;;;1.60;1.17;;;9.80;98.20;;;;;;5046812;28;20458;-75
2023/01/12 04:52:40;;;;;;;1.60;1.10;;;9.80;98.20;;;;;;5015512;28;20478;-76
2023/01/12 04:55:08;;;;;;;1.60;1.10;;;9.80;98.20;;;;;;5035840;28;20474;-76
2023/01/12 04:57:35;;;;;;;1.60;1.10;;;9.80;98.20;;;;;;5020191;28;20479;-76
2023/01/12 05:00:02;;;;;;;1.60;1.17;;;9.70;98.20;;;;;;5035975;28;20462;-76
2023/01/12 05:02:28;;;;;;;1.60;1.10;;;9.70;98.20;;;;;;5016696;28;20486;-76
2023/01/12 05:04:55;;;;;;;1.60;1.10;;;9.70;98.20;;;;;;5039504;28;20463;-77
2023/01/12 05:07:22;;;;;;;1.60;1.20;;;9.70;98.20;;;;;;5019013;28;20830;-76
2023/01/12 05:12:35;;;;;;;1.60;1.30;;;9.60;98.20;;;;;;5025486;28;20601;-76
2023/01/12 05:15:02;;;;;;;1.60;1.20;;;9.60;98.20;;;;;;5043562;28;20463;-77
2023/01/12 05:17:29;;;;;;;1.60;1.20;;;9.60;98.20;;;;;;5017226;28;20490;-76
2023/01/12 05:19:56;;;;;;;1.60;1.10;;;9.60;98.20;;;;;;5034287;28;20477;-76
2023/01/12 05:22:22;;;;;;;1.60;1.10;;;9.60;98.20;;;;;;5017470;28;20487;-76
2023/01/12 05:24:50;;;;;;;1.60;1.10;;;9.50;98.20;;;;;;5033718;28;20459;-76
2023/01/12 05:27:19;;;;;;;1.60;1.10;;;9.50;98.20;;;;;;5015565;28;20480;-76
2023/01/12 05:29:46;;;;;;;1.60;1.10;;;9.50;98.20;;;;;;5035853;28;20463;-76
2023/01/12 05:32:13;;;;;;;1.60;1.10;;;9.50;98.20;;;;;;5019002;28;20475;-77
2023/01/12 05:34:40;;;;;;;1.60;1.10;;;9.50;98.20;;;;;;5038237;28;20517;-77
2023/01/12 05:37:07;;;;;;;1.60;1.10;;;9.50;98.20;;;;;;5026710;28;21406;-76
2023/01/12 05:39:34;;;;;;;1.60;1.10;;;9.50;98.20;;;;;;5040080;28;20474;-77
2023/01/12 05:44:46;;;;;;;1.60;1.10;;;9.40;98.20;;;;;;5039711;28;21059;-77
2023/01/12 05:47:13;;;;;;;1.60;1.20;;;9.40;98.20;;;;;;5021057;28;20479;-75
2023/01/12 05:49:40;;;;;;;1.60;1.20;;;9.40;98.20;;;;;;5041058;28;20955;-77
2023/01/12 05:52:07;;;;;;;1.60;1.10;;;9.40;98.20;;;;;;5024605;28;20487;-76
2023/01/12 05:54:33;;;;;;;1.60;1.10;;;9.30;98.20;;;;;;5043862;28;20458;-76
2023/01/12 05:57:02;;;;;;;1.60;1.10;;;9.30;98.20;;;;;;5020441;28;20501;-76
2023/01/12 05:59:28;;;;;;;1.60;1.10;;;9.30;98.20;;;;;;5031703;28;20469;-77
2023/01/12 06:01:55;;;;;;;1.60;1.10;;;9.30;98.20;;;;;;5022390;28;21028;-77
2023/01/12 06:04:22;;;;;;;1.60;1.10;;;9.20;98.20;;;;;;5028553;28;20479;-77
2023/01/12 06:06:49;;;;;;;1.60;1.20;;;9.20;98.20;;;;;;5022131;28;20479;-77
2023/01/12 06:09:16;;;;;;;1.60;1.20;;;9.20;98.20;;;;;;5032019;28;20469;-76
2023/01/12 06:14:28;;;;;;;1.60;1.10;;;9.20;98.20;;;;;;5030690;28;20439;-76
2023/01/12 06:16:55;;;;;;;1.60;1.23;;;9.20;98.20;;;;;;5028262;28;20479;-77
2023/01/12 06:19:22;;;;;;;1.60;1.20;;;9.20;98.20;;;;;;5033442;28;20486;-76
2023/01/12 06:21:49;;;;;;;1.60;1.10;;;9.20;98.20;;;;;;5026105;28;21027;-76
2023/01/12 06:24:16;;;;;;;1.60;1.10;;;9.10;98.20;;;;;;5033072;28;21045;-77
2023/01/12 06:26:43;;;;;;;1.60;1.10;;;9.10;98.20;;;;;;5025776;28;21091;-76
2023/01/12 06:29:10;;;;;;;1.60;1.20;;;9.10;98.20;;;;;;5029650;28;20553;-76
2023/01/12 06:31:53;;;;;;;1.60;1.20;;;9.10;98.20;;;;;;5026393;28;20479;-77
2023/01/12 06:34:20;;;;;;;1.60;1.20;;;9.10;98.20;;;;;;5035143;28;20462;-77
2023/01/12 06:36:48;;;;;;;1.60;1.20;;;9.10;98.20;;;;;;5028434;28;20525;-76
2023/01/12 06:39:15;;;;;;;1.60;1.20;;;9.10;98.20;;;;;;5030003;28;20874;-75
2023/01/12 06:44:26;;;;;;;1.60;1.30;;;9.10;98.20;;;;;;5031365;28;20485;-76
2023/01/12 06:46:54;;;;;;;1.60;1.20;;;9.10;98.20;;;;;;5012506;28;20488;-76
2023/01/12 06:49:21;;;;;;;1.60;1.20;;;9.10;98.20;;;;;;5029216;28;20756;-76
2023/01/12 06:51:50;;;;;;;1.60;1.20;;;9.20;98.20;;;;;;5022858;28;20487;-77
2023/01/12 06:54:16;;;;;;;1.60;1.20;;;9.20;98.20;;;;;;5032889;28;20462;-74
2023/01/12 06:56:43;;;;;;;1.60;1.10;;;9.20;98.20;;;;;;5011374;28;20477;-74
2023/01/12 06:59:11;;;;;;;1.60;1.17;;;9.20;98.20;;;;;;5027947;28;20461;-75
2023/01/12 07:01:38;;;;;;;1.60;1.10;;;9.30;98.20;;;;;;5018737;28;20988;-75
2023/01/12 07:04:06;;;;;;;1.60;1.10;;;9.30;98.20;;;;;;5026576;28;20518;-75
2023/01/12 07:06:34;;;;;;;1.60;1.13;;;9.30;98.20;;;;;;5015104;28;20492;-75
2023/01/12 07:09:01;;;;;;;1.60;1.10;;;9.40;98.20;;;;;;5032461;28;20456;-75
2023/01/12 07:11:34;;;;;;;1.60;1.10;;;9.40;98.20;;;;;;5030695;28;20479;-75
2023/01/12 07:16:42;;;;;;;1.60;1.10;;;9.50;98.20;;;;;;5015450;28;20558;-75
2023/01/12 07:19:10;;;;;;;1.60;1.10;;;9.50;98.20;;;;;;5027854;28;22042;-75
2023/01/12 07:21:37;;;;;;;1.60;1.20;;;9.50;98.20;;;;;;5019395;28;20486;-75
2023/01/12 07:24:05;;;;;;;1.60;1.10;;;9.50;98.20;;;;;;5033822;28;20494;-75
2023/01/12 07:26:47;;;;;;;1.60;1.10;;;9.50;98.20;;;;;;5010023;28;20484;-75
2023/01/12 07:29:14;;;;;;;1.60;1.20;;;9.50;98.20;;;;;;5029922;28;20548;-76
2023/01/12 07:31:43;;;;;;;1.60;1.20;;;9.60;98.20;;;;;;5029394;28;20486;-76
2023/01/12 07:34:11;;;;;;;1.60;1.10;;;9.60;98.20;;;;;;5032756;28;20462;-76
2023/01/12 07:36:38;;;;;;;1.60;1.10;;;9.60;98.20;;;;;;5017726;28;20510;-76
2023/01/12 07:39:07;;;;;;;1.60;1.10;;;9.60;98.20;;;;;;5023147;28;20458;-77
2023/01/12 07:44:23;;;;;;;1.60;1.20;;;9.60;98.20;;;;;;5008627;28;20976;-77
2023/01/12 07:46:50;;;;;;;1.60;1.17;;;9.60;98.20;;;;;;5014161;28;20514;-76
2023/01/12 07:49:18;;;;;;;1.60;1.20;;;9.60;98.20;;;;;;5026428;28;20469;-76
2023/01/12 07:51:45;;;;;;;1.60;1.10;;;9.70;98.20;;;;;;5018371;28;20500;-76
2023/01/12 07:54:12;;;;;;;1.60;1.20;;;9.70;98.20;;;;;;5027682;28;20821;-76
2023/01/12 07:56:39;;;;;;;1.60;1.20;;;9.70;98.20;;;;;;5016187;28;21000;-76
2023/01/12 07:59:05;;;;;;;1.60;1.20;;;9.70;98.20;;;;;;5030815;28;20485;-75
2023/01/12 08:01:34;;;;;;;1.60;1.10;;;9.70;98.20;;;;;;5024077;28;20486;-75
2023/01/12 08:04:01;;;;;;;1.60;1.10;;;9.70;98.20;;;;;;5026145;28;20901;-75
2023/01/12 08:06:30;;;;;;;1.60;1.10;;;9.70;98.20;;;;;;5023445;28;20518;-76
2023/01/12 08:08:57;;;;;;;1.60;1.10;;;9.70;98.20;;;;;;5029238;28;20974;-75
2023/01/12 08:11:23;;;;;;;1.60;1.10;;;9.80;98.20;;;;;;5022841;28;20486;-76
2023/01/12 08:13:54;;;;;;;1.60;1.10;;;9.80;98.20;;;;;;5032023;28;20455;-76
2023/01/12 08:16:23;;;;;;;1.60;1.20;;;9.80;98.20;;;;;;5025463;28;20489;-77
2023/01/12 08:18:55;;;;;;;1.60;1.20;;;9.80;98.20;;;;;;5031209;28;20459;-78
2023/01/12 08:21:26;;;;;;;1.60;1.30;;;9.80;98.20;;;;;;5025094;28;21048;-75
2023/01/12 08:24:00;;;;;;;1.60;1.30;;;9.80;98.20;;;;;;5027412;28;20483;-75
2023/01/12 08:26:31;;;;;;;1.60;1.20;;;9.80;98.20;;;;;;5021330;28;21128;-75
2023/01/12 08:29:03;;;;;;;1.60;1.10;;;9.80;98.20;;;;;;5030757;28;20459;-75
2023/01/12 08:31:32;;;;;;;1.60;1.13;;;9.80;98.20;;;;;;5023039;28;20974;-75
2023/01/12 08:33:58;;;;;;;1.60;1.30;;;9.90;98.20;;;;;;5029567;28;21002;-74
2023/01/12 08:36:28;;;;;;;1.60;1.10;;;9.90;98.20;;;;;;5020855;28;20470;-74
2023/01/12 08:38:57;;;;;;;1.60;1.10;;;9.90;98.20;;;;;;5028621;28;20472;-74
2023/01/12 08:41:34;;;;;;;1.60;1.10;;;9.90;98.20;;;;;;5021480;28;20473;-75
2023/01/12 08:44:01;;;;;;;1.60;1.10;;;9.90;98.20;;;;;;5030225;28;20483;-75
2023/01/12 08:46:28;;;;;;;1.60;1.10;;;9.90;98.20;;;;;;5019171;28;20479;-75
2023/01/12 08:48:55;;;;;;;1.60;1.10;;;9.90;98.20;;;;;;5029041;28;20469;-74
2023/01/12 08:51:22;;;;;;;1.60;1.10;;;9.90;98.20;;;;;;5022900;28;21003;-75
2023/01/12 08:53:49;;;;;;;1.60;1.10;;;10.00;98.20;;;;;;5025762;28;20546;-75
2023/01/12 08:56:17;;;;;;;1.60;1.10;;;10.00;98.20;;;;;;5021533;28;20470;-75
2023/01/12 08:58:44;;;;;;;1.60;1.10;;;10.00;98.20;;;;;;5029914;28;20459;-76
2023/01/12 09:01:13;;;;;;;1.60;1.10;;;10.00;98.20;;;;;;5026200;28;20588;-75
2023/01/12 09:03:40;;;;;;;1.60;1.10;;;10.00;98.20;;;;;;5021115;28;20491;-75
2023/01/12 09:06:12;;;;;;;1.60;1.10;;;10.00;98.20;;;;;;5022540;28;20491;-75
2023/01/12 09:08:39;;;;;;;1.60;1.10;;;10.10;98.20;;;;;;5035470;28;20703;-75
2023/01/12 09:11:06;;;;;;;1.60;1.20;;;10.10;98.20;;;;;;5022919;28;20474;-75
2023/01/12 09:13:35;;;;;;;1.60;1.20;;;10.10;98.20;;;;;;5022042;28;20670;-75
2023/01/12 09:16:04;;;;;;;1.60;1.10;;;10.10;98.20;;;;;;5025650;28;21022;-75
2023/01/12 09:18:30;;;;;;;1.60;1.20;;;10.10;98.20;;;;;;5019382;28;20618;-75
2023/01/12 09:21:14;;;;;;;1.60;1.10;;;10.10;98.20;;;;;;5026583;28;20471;-76
2023/01/12 09:23:42;;;;;;;1.60;1.10;;;10.20;98.20;;;;;;5026803;28;20473;-75
2023/01/12 09:26:10;;;;;;;1.60;1.17;;;10.20;98.20;;;;;;5026665;28;20486;-75
2023/01/12 09:28:39;;;;;;;1.60;1.10;;;10.20;98.20;;;;;;5024564;28;20951;-75
2023/01/12 09:31:08;;;;;;;1.60;1.10;;;10.20;98.20;;;;;;5026577;28;20466;-75
2023/01/12 09:33:36;;;;;;;1.60;1.10;;;10.20;98.20;;;;;;5028184;28;20460;-75
2023/01/12 09:36:04;;;;;;;1.60;1.20;;;10.30;98.20;;;;;;5022290;28;20487;-75
2023/01/12 09:38:31;;;;;;;1.60;1.10;;;10.30;98.20;;;;;;5017735;28;20472;-75
2023/01/12 09:40:59;;;;;;;1.60;1.20;;;10.30;98.20;;;;;;5021575;28;20459;-75
2023/01/12 09:49:31;;;;;;;1.60;1.10;;;10.40;98.20;;;;;;4968710;28;21141;-76
2023/01/12 09:52:04;;;;;;;1.60;1.10;;;10.40;98.20;;;;;;4960555;28;21034;-77
2023/01/12 09:54:33;;;;;;;1.60;1.20;;;10.40;98.20;;;;;;5001008;28;20460;-76
2023/01/12 09:57:11;;;;;;;1.60;1.10;;;10.50;98.20;;;;;;5012163;28;20910;-76
2023/01/12 09:59:52;;;;;;;1.60;1.10;;;10.50;98.20;;;;;;5033723;28;20483;-76
2023/01/12 10:02:21;;;;;;;1.60;1.10;;;10.50;98.20;;;;;;5017113;28;20471;-76
2023/01/12 10:04:50;;;;;;;1.60;1.10;;;10.50;98.20;;;;;;5033603;28;20482;-76
2023/01/12 10:07:18;;;;;;;1.60;1.10;;;10.50;98.20;;;;;;5014819;28;20873;-75
2023/01/12 10:09:45;;;;;;;1.60;1.10;;;10.60;98.20;;;;;;5028230;28;20553;-76
2023/01/12 10:12:19;;;;;;;1.60;1.10;;;10.60;98.20;;;;;;5009655;28;20476;-75
2023/01/12 10:15:03;;;;;;;1.60;1.10;;;10.60;98.20;;;;;;5028282;28;20528;-75
2023/01/12 10:17:39;;;;;;;1.60;1.10;;;10.70;98.20;;;;;;5007920;28;21011;-75
2023/01/12 10:20:17;;;;;;;1.60;1.10;;;10.70;98.20;;;;;;5026967;28;20463;-76
2023/01/12 10:22:47;;;;;;;1.60;1.20;;;10.70;98.20;;;;;;5008574;28;20536;-76
2023/01/12 10:25:20;;;;;;;1.60;1.10;;;10.70;98.20;;;;;;5033859;28;20494;-76
2023/01/12 10:27:51;;;;;;;1.60;1.00;;;10.70;98.20;;;;;;5007233;28;20490;-76
2023/01/12 10:30:24;;;;;;;1.60;1.10;;;10.70;98.20;;;;;;5032793;28;20463;-76
2023/01/12 10:32:52;;;;;;;1.60;1.00;;;10.70;98.20;;;;;;5011939;28;20479;-76
2023/01/12 10:35:21;;;;;;;1.60;1.10;;;10.70;98.20;;;;;;5035044;28;21038;-76
2023/01/12 10:37:51;;;;;;;1.60;1.20;;;10.70;98.20;;;;;;5014211;28;20480;-77
2023/01/12 10:40:30;;;;;;;1.60;1.10;;;10.70;98.20;;;;;;5034763;28;20455;-76
2023/01/12 10:43:20;;;;;;;1.60;1.10;;;10.70;98.20;;;;;;5008644;28;20678;-76
2023/01/12 10:46:03;;;;;;;1.60;1.10;;;10.70;98.20;;;;;;5029301;28;20495;-76
2023/01/12 10:48:32;;;;;;;1.60;1.20;;;10.80;98.20;;;;;;5021114;28;20494;-76
2023/01/12 10:51:01;;;;;;;1.60;1.10;;;10.80;98.20;;;;;;5028244;28;20458;-76
2023/01/12 10:53:34;;;;;;;1.60;1.10;;;10.80;98.20;;;;;;5022864;28;20499;-74
2023/01/12 10:56:21;;;;;;;1.60;1.10;;;10.80;98.20;;;;;;5024370;28;20480;-74
2023/01/12 10:58:54;;;;;;;1.60;1.10;;;10.90;98.20;;;;;;5041573;28;20470;-75
2023/01/12 11:01:23;;;;;;;1.60;1.00;;;10.90;98.20;;;;;;5019920;28;20738;-75
2023/01/12 11:04:04;;;;;;;1.60;1.13;;;11.00;98.20;;;;;;5026987;28;20462;-75
2023/01/12 11:06:31;;;;;;;1.60;1.10;;;11.00;98.20;;;;;;5015240;28;20519;-75
2023/01/12 11:08:59;;;;;;;1.60;1.00;;;11.00;98.20;;;;;;5022485;28;20549;-75
2023/01/12 11:11:31;;;;;;;1.60;1.10;;;11.00;98.20;;;;;;5021074;28;20497;-74
2023/01/12 11:13:59;;;;;;;1.60;1.10;;;11.00;98.20;;;;;;5027520;28;20467;-76
2023/01/12 11:16:31;;;;;;;1.60;1.10;;;11.00;98.20;;;;;;5021063;28;20511;-75
2023/01/12 11:19:16;;;;;;;1.60;1.20;;;11.00;98.20;;;;;;5029595;28;20463;-75
2023/01/12 11:21:49;;;;;;;1.60;1.10;;;11.10;98.20;;;;;;5023472;28;20487;-74
2023/01/12 11:24:30;;;;;;;1.60;1.00;;;11.10;98.20;;;;;;5034475;28;20469;-74
2023/01/12 11:27:00;;;;;;;1.60;1.10;;;11.10;98.20;;;;;;5017917;28;20778;-74
2023/01/12 11:29:35;;;;;;;1.60;1.10;;;11.10;98.20;;;;;;5035615;28;20473;-74
2023/01/12 11:32:07;;;;;;;1.60;1.10;;;11.20;98.20;;;;;;5009367;28;20562;-73
2023/01/12 11:34:44;;;;;;;1.60;1.10;;;11.20;98.20;;;;;;5026968;28;20555;-74
2023/01/12 11:37:13;;;;;;;1.60;1.10;;;11.20;98.20;;;;;;5009420;28;20569;-74
2023/01/12 11:39:42;;;;;;;1.60;1.00;;;11.20;98.20;;;;;;5025690;28;20464;-74
2023/01/12 11:45:05;;;;;;;1.60;1.00;;;11.20;98.20;;;;;;5035811;28;20482;-75
2023/01/12 11:47:36;;;;;;;1.60;1.10;;;11.20;98.20;;;;;;5006852;28;20991;-74
2023/01/12 11:50:11;;;;;;;1.60;1.10;;;11.20;98.20;;;;;;5038064;28;20459;-74
2023/01/12 11:52:38;;;;;;;1.60;1.10;;;11.30;98.20;;;;;;5011832;28;20590;-74
2023/01/12 11:55:05;;;;;;;1.60;1.10;;;11.30;98.20;;;;;;5033526;28;20459;-74
2023/01/12 11:57:45;;;;;;;1.60;1.00;;;11.30;98.20;;;;;;5012228;28;20490;-74
2023/01/12 12:00:29;;;;;;;1.60;1.10;;;11.30;98.20;;;;;;5036087;28;20466;-74
2023/01/12 12:03:07;;;;;;;1.60;1.10;;;11.40;98.20;;;;;;5016684;28;20581;-74
2023/01/12 12:05:44;;;;;;;1.60;1.10;;;11.30;98.20;;;;;;5031043;28;21121;-74
2023/01/12 12:08:24;;;;;;;1.60;1.00;;;11.30;98.20;;;;;;5016167;28;20528;-74
2023/01/12 12:10:58;;;;;;;1.60;1.00;;;11.40;98.20;;;;;;5019722;28;20475;-75
2023/01/12 12:13:31;;;;;;;1.60;1.20;;;11.40;98.20;;;;;;5017857;28;21206;-76
2023/01/12 12:16:14;;;;;;;1.60;1.20;;;11.40;98.20;;;;;;5018044;28;21056;-74
2023/01/12 12:19:09;;;;;;;1.57;1.00;;;11.40;98.20;;;;;;5016278;28;20471;-75
2023/01/12 12:21:57;;;;;;;1.60;1.20;;;11.40;98.20;;;;;;5009785;28;20595;-76
2023/01/12 12:24:53;;;;;;;1.60;1.17;;;11.40;98.20;;;;;;5023136;28;20554;-75
2023/01/12 12:27:31;;;;;;;1.60;1.10;;;11.40;98.20;;;;;;5010585;28;20522;-77
2023/01/12 12:30:20;;;;;;;1.60;1.00;;;11.40;98.20;;;;;;5035379;28;20523;-75
2023/01/12 12:32:54;;;;;;;1.60;1.10;;;11.40;98.20;;;;;;5009288;28;20891;-75
2023/01/12 12:35:31;;;;;;;1.60;1.00;;;11.40;98.20;;;;;;5041467;28;20482;-75
2023/01/12 12:38:16;;;;;;;1.60;1.07;;;11.40;98.20;;;;;;5020525;28;20487;-75
2023/01/12 12:46:30;;;;;;;1.60;1.20;;;11.40;98.20;;;;;;5024538;28;20494;-74
2023/01/12 12:49:03;;;;;;;1.60;1.07;;;11.40;98.20;;;;;;5029349;28;20546;-74
2023/01/12 12:51:33;;;;;;;1.60;1.10;;;11.40;98.20;;;;;;5021726;28;20471;-77
2023/01/12 12:54:05;;;;;;;1.60;1.10;;;11.40;98.20;;;;;;5029963;28;20463;-76
2023/01/12 12:56:35;;;;;;;1.60;1.00;;;11.40;98.20;;;;;;5023172;28;20526;-76
2023/01/12 12:59:02;;;;;;;1.60;1.10;;;11.40;98.20;;;;;;5026959;28;20458;-77
2023/01/12 13:01:42;;;;;;;1.60;1.10;;;11.40;98.20;;;;;;5017758;28;20482;-76
2023/01/12 13:04:11;;;;;;;1.60;1.10;;;11.40;98.20;;;;;;5028343;28;20834;-77
2023/01/12 13:06:40;;;;;;;1.60;1.10;;;11.40;98.20;;;;;;5024516;28;20502;-76
2023/01/12 13:09:38;;;;;;;1.60;1.00;;;11.40;98.20;;;;;;5035946;28;20470;-75
2023/01/12 13:12:22;;;;;;;1.60;1.10;;;11.30;98.20;;;;;;5011760;28;20479;-75
2023/01/12 13:15:37;;;;;;;1.60;1.10;;;11.30;98.20;;;;;;5034464;28;20505;-76
2023/01/12 13:18:05;;;;;;;1.60;1.10;;;11.30;98.20;;;;;;4924139;28;20519;-76
2023/01/12 13:20:52;;;;;;;1.60;1.10;;;11.30;98.20;;;;;;5017305;28;20479;-75
2023/01/12 13:23:50;;;;;;;1.60;1.00;;;11.30;98.20;;;;;;5005844;28;20549;-76
2023/01/12 13:26:37;;;;;;;1.70;1.30;;;11.20;98.20;;;;;;4978071;28;20566;-76
2023/01/12 13:29:48;;;;;;;1.60;1.10;;;11.20;98.20;;;;;;5032607;28;20491;-75
2023/01/12 13:32:36;;;;;;;1.60;1.10;;;11.30;98.20;;;;;;4992116;28;20893;-75
2023/01/12 13:35:03;;;;;;;1.60;1.10;;;11.30;98.20;;;;;;5030487;28;20467;-75
2023/01/12 13:37:44;;;;;;;1.60;1.20;;;11.20;98.20;;;;;;5006419;28;21048;-75
2023/01/12 13:40:18;;;;;;;1.60;1.07;;;11.20;98.20;;;;;;5033970;28;20466;-76
2023/01/12 13:45:33;;;;;;;1.60;1.10;;;11.20;98.20;;;;;;5030115;28;20485;-75
2023/01/12 13:48:00;;;;;;;1.53;1.00;;;11.30;98.20;;;;;;5004212;28;20484;-76
2023/01/12 13:50:28;;;;;;;1.60;1.20;;;11.30;98.20;;;;;;5033716;28;20473;-76
2023/01/12 13:52:59;;;;;;;1.60;1.10;;;11.20;98.20;;;;;;5009627;28;20484;-75
2023/01/12 13:55:28;;;;;;;1.60;1.10;;;11.30;98.20;;;;;;5031031;28;20480;-75
2023/01/12 13:57:59;;;;;;;1.60;1.17;;;11.20;98.20;;;;;;5013104;28;20479;-75
2023/01/12 14:00:28;;;;;;;1.60;1.10;;;11.20;98.20;;;;;;5030819;28;20550;-75
2023/01/12 14:02:56;;;;;;;1.60;1.10;;;11.20;98.20;;;;;;5011750;28;20483;-75
2023/01/12 14:05:53;;;;;;;1.60;1.10;;;11.20;98.20;;;;;;5032477;28;20495;-76